Time;durP1;ratioP1;P1;durP2;ratioP2;P2;SDS_P1;SDS_P2;PMS_P1;PMS_P2;Temp;Humidity;BMP_temperature;BMP_pressure;BME280_temperature;BME280_humidity;BME280_pressure;Samples;Min_cycle;Max_cycle;Signal;HPM_P1;HPM_P2
2022/03/19 00:01:33;;;;;;;11.00;7.43;;;9.10;99.90;;;;;;4976759;28;20173;-71
2022/03/19 00:03:59;;;;;;;11.87;7.03;;;9.20;99.90;;;;;;4982485;28;20242;-71
2022/03/19 00:06:25;;;;;;;13.40;8.80;;;9.20;99.90;;;;;;4989749;28;20199;-70
2022/03/19 00:08:50;;;;;;;13.73;7.07;;;9.20;99.90;;;;;;4982595;28;20652;-70
2022/03/19 00:11:16;;;;;;;10.20;7.83;;;9.20;99.90;;;;;;4984982;28;20199;-70
2022/03/19 00:13:42;;;;;;;14.13;7.93;;;9.10;99.90;;;;;;4958767;28;20564;-70
2022/03/19 00:16:08;;;;;;;12.03;8.43;;;9.10;99.90;;;;;;4993689;28;20210;-70
2022/03/19 00:18:34;;;;;;;13.80;8.87;;;9.00;99.90;;;;;;4979780;28;20579;-70
2022/03/19 00:20:59;;;;;;;14.47;7.93;;;9.00;99.90;;;;;;4975970;28;20254;-70
2022/03/19 00:23:25;;;;;;;14.07;7.70;;;9.00;99.90;;;;;;4975310;28;20279;-69
2022/03/19 00:25:51;;;;;;;15.07;8.20;;;9.00;99.90;;;;;;4975894;28;20193;-71
2022/03/19 00:28:18;;;;;;;12.83;9.13;;;8.90;99.90;;;;;;4974476;28;20558;-71
2022/03/19 00:30:46;;;;;;;10.67;8.03;;;9.00;99.90;;;;;;4974606;28;20653;-69
2022/03/19 00:33:12;;;;;;;12.33;8.27;;;9.00;99.90;;;;;;4974626;28;20188;-71
2022/03/19 00:35:38;;;;;;;14.73;9.27;;;9.00;99.90;;;;;;4976086;28;20196;-70
2022/03/19 00:38:04;;;;;;;13.07;8.87;;;8.90;99.90;;;;;;4974610;28;20649;-71
2022/03/19 00:40:33;;;;;;;14.60;8.60;;;8.90;99.90;;;;;;4958018;28;20192;-70
2022/03/19 00:42:58;;;;;;;10.93;7.67;;;8.90;99.90;;;;;;4975764;28;20188;-70
2022/03/19 00:45:24;;;;;;;16.87;7.97;;;8.90;99.90;;;;;;4958363;28;20189;-70
2022/03/19 00:47:50;;;;;;;11.50;8.00;;;8.80;99.90;;;;;;4974664;28;20205;-71
2022/03/19 00:50:16;;;;;;;13.13;8.80;;;8.80;99.90;;;;;;4974256;28;20302;-73
2022/03/19 00:52:42;;;;;;;14.23;7.90;;;8.80;99.90;;;;;;4993573;28;20663;-69
2022/03/19 00:55:08;;;;;;;10.90;7.00;;;8.80;99.90;;;;;;4991454;28;20661;-69
2022/03/19 00:57:39;;;;;;;12.50;7.63;;;8.90;99.90;;;;;;4974596;28;20212;-71
2022/03/19 01:00:05;;;;;;;11.83;7.87;;;8.70;99.90;;;;;;4975467;28;20202;-70
2022/03/19 01:02:31;;;;;;;15.77;8.67;;;8.80;99.90;;;;;;4988863;28;20200;-70
2022/03/19 01:04:59;;;;;;;10.40;7.33;;;8.80;99.90;;;;;;4981484;28;20195;-70
2022/03/19 01:07:25;;;;;;;12.77;7.33;;;8.70;99.90;;;;;;4967767;28;20239;-70
2022/03/19 01:09:50;;;;;;;11.70;8.63;;;8.70;99.90;;;;;;4974296;28;20220;-69
2022/03/19 01:12:16;;;;;;;13.57;8.10;;;8.60;99.90;;;;;;4973984;28;20223;-70
2022/03/19 01:14:41;;;;;;;12.70;8.00;;;8.60;99.90;;;;;;4983408;28;20198;-70
2022/03/19 01:17:08;;;;;;;11.60;7.17;;;8.60;99.90;;;;;;4977240;28;20618;-70
2022/03/19 01:22:18;;;;;;;18.20;7.83;;;8.50;99.90;;;;;;4975567;28;20204;-70
2022/03/19 01:24:45;;;;;;;12.17;8.97;;;8.60;99.90;;;;;;4974145;28;20192;-70
2022/03/19 01:27:10;;;;;;;10.47;8.10;;;8.60;99.90;;;;;;4974697;28;20733;-69
2022/03/19 01:29:36;;;;;;;9.73;8.07;;;8.60;99.90;;;;;;4972942;28;20299;-71
2022/03/19 01:32:02;;;;;;;13.33;7.97;;;8.50;99.90;;;;;;4972974;28;20234;-70
2022/03/19 01:34:27;;;;;;;12.13;8.27;;;8.40;99.90;;;;;;4979560;28;20193;-70
2022/03/19 01:36:53;;;;;;;11.53;7.63;;;8.40;99.90;;;;;;4985486;28;20251;-69
2022/03/19 01:39:19;;;;;;;13.23;7.70;;;8.40;99.90;;;;;;4989657;28;20191;-70
2022/03/19 01:41:45;;;;;;;11.13;8.07;;;8.40;99.90;;;;;;4977786;28;20188;-70
2022/03/19 01:44:19;;;;;;;13.40;8.43;;;8.30;99.90;;;;;;4974576;28;20623;-71
2022/03/19 01:47:10;;;;;;;11.00;8.13;;;8.30;99.90;;;;;;4973208;28;20220;-69
2022/03/19 01:49:38;;;;;;;14.13;8.43;;;8.20;99.90;;;;;;4984345;28;20291;-69
2022/03/19 01:52:05;;;;;;;10.17;8.20;;;8.20;99.90;;;;;;4992581;28;20196;-69
2022/03/19 01:54:35;;;;;;;13.23;8.07;;;8.20;99.90;;;;;;4975207;28;20272;-69
2022/03/19 01:57:01;;;;;;;12.37;9.13;;;8.20;99.90;;;;;;4975191;28;20512;-69
2022/03/19 01:59:33;;;;;;;10.87;8.13;;;8.20;99.90;;;;;;4973058;28;20279;-67
2022/03/19 02:02:01;;;;;;;9.80;7.20;;;8.20;99.90;;;;;;4974311;28;20648;-70
2022/03/19 02:04:28;;;;;;;11.13;7.50;;;8.20;99.90;;;;;;4957557;28;20279;-70
2022/03/19 02:06:54;;;;;;;10.47;8.33;;;8.20;99.90;;;;;;4973716;28;20188;-69
2022/03/19 02:09:20;;;;;;;11.97;7.73;;;8.20;99.90;;;;;;4974088;28;20261;-69
2022/03/19 02:11:46;;;;;;;12.23;7.37;;;8.10;99.90;;;;;;4974788;28;20727;-69
2022/03/19 02:14:11;;;;;;;12.73;7.40;;;8.00;99.90;;;;;;4992586;28;20247;-69
2022/03/19 02:16:39;;;;;;;13.00;7.77;;;8.00;99.90;;;;;;4973053;28;20200;-70
2022/03/19 02:19:05;;;;;;;12.50;7.87;;;8.00;99.90;;;;;;4972952;28;20271;-70
2022/03/19 02:21:42;;;;;;;10.80;8.10;;;8.00;99.90;;;;;;4981177;28;20675;-68
2022/03/19 02:26:52;;;;;;;12.60;7.70;;;8.10;99.90;;;;;;4987151;28;20207;-68
2022/03/19 02:29:19;;;;;;;11.57;7.83;;;8.00;99.90;;;;;;4973131;28;20216;-69
2022/03/19 02:31:49;;;;;;;11.30;7.10;;;7.90;99.90;;;;;;4972851;28;20188;-70
2022/03/19 02:34:15;;;;;;;9.57;7.00;;;7.90;99.90;;;;;;4974386;28;20251;-69
2022/03/19 02:36:40;;;;;;;13.27;7.53;;;7.80;99.90;;;;;;4974287;28;20597;-70
2022/03/19 02:39:10;;;;;;;11.57;6.83;;;7.90;99.90;;;;;;4973852;28;20196;-67
2022/03/19 02:41:39;;;;;;;14.13;7.97;;;7.90;99.90;;;;;;4974054;28;20192;-69
2022/03/19 02:44:05;;;;;;;15.40;7.53;;;7.90;99.90;;;;;;4972640;28;20665;-68
2022/03/19 02:46:42;;;;;;;13.83;8.73;;;7.90;99.90;;;;;;4972469;28;20220;-69
2022/03/19 02:49:08;;;;;;;11.40;7.13;;;7.80;99.90;;;;;;4977099;28;20215;-69
2022/03/19 02:51:36;;;;;;;12.83;7.40;;;7.80;99.90;;;;;;4963571;28;20192;-71
2022/03/19 02:54:07;;;;;;;9.97;7.93;;;7.80;99.90;;;;;;4992374;28;20214;-71
2022/03/19 02:56:38;;;;;;;9.57;7.37;;;7.80;99.90;;;;;;4980001;28;20196;-70
2022/03/19 02:59:20;;;;;;;14.43;7.57;;;7.70;99.90;;;;;;4974007;28;20193;-69
2022/03/19 03:01:49;;;;;;;12.70;8.47;;;7.70;99.90;;;;;;4974001;28;20199;-69
2022/03/19 03:04:15;;;;;;;10.30;8.00;;;7.70;99.90;;;;;;4973932;28;20185;-70
2022/03/19 03:06:47;;;;;;;14.33;7.70;;;7.60;99.90;;;;;;4972968;28;20199;-70
2022/03/19 03:09:13;;;;;;;13.77;7.87;;;7.60;99.90;;;;;;4977133;28;20247;-69
2022/03/19 03:11:40;;;;;;;11.57;8.40;;;7.60;99.90;;;;;;4977140;28;20184;-70
2022/03/19 03:14:06;;;;;;;13.10;9.00;;;7.60;99.90;;;;;;4984791;28;20203;-71
2022/03/19 03:16:33;;;;;;;13.97;9.70;;;7.60;99.90;;;;;;4992514;28;20292;-70
2022/03/19 03:19:03;;;;;;;16.00;9.10;;;7.60;99.90;;;;;;4981159;28;20224;-71
2022/03/19 03:21:29;;;;;;;14.33;8.73;;;7.60;99.90;;;;;;4976184;28;20188;-69
2022/03/19 03:23:55;;;;;;;18.23;9.77;;;7.50;99.90;;;;;;4976091;28;20554;-71
2022/03/19 03:26:21;;;;;;;15.63;10.10;;;7.40;99.90;;;;;;4992290;28;20196;-70
2022/03/19 03:28:47;;;;;;;11.87;9.73;;;7.30;99.90;;;;;;4981717;28;20212;-70
2022/03/19 03:31:15;;;;;;;16.67;10.30;;;7.30;99.90;;;;;;4994782;28;20196;-69
2022/03/19 03:33:41;;;;;;;16.27;9.70;;;7.20;99.90;;;;;;4979983;28;20275;-70
2022/03/19 03:36:07;;;;;;;17.63;10.17;;;7.20;99.90;;;;;;4977856;28;20212;-70
2022/03/19 03:38:36;;;;;;;19.17;11.03;;;7.20;99.90;;;;;;4981265;28;20204;-70
2022/03/19 03:41:05;;;;;;;14.73;10.27;;;7.20;99.90;;;;;;4977310;28;20281;-69
2022/03/19 03:43:31;;;;;;;13.70;10.03;;;7.10;99.90;;;;;;4976915;28;20199;-70
2022/03/19 03:45:57;;;;;;;15.30;10.87;;;7.20;99.90;;;;;;4986519;28;20701;-70
2022/03/19 03:48:22;;;;;;;17.23;11.27;;;7.10;99.90;;;;;;4975755;28;20284;-70
2022/03/19 03:50:53;;;;;;;22.17;11.37;;;7.10;99.90;;;;;;4959524;28;20662;-70
2022/03/19 03:53:20;;;;;;;17.67;11.43;;;7.10;99.90;;;;;;4976459;28;20185;-71
2022/03/19 03:55:46;;;;;;;17.73;12.00;;;7.00;99.90;;;;;;4975041;28;20192;-70
2022/03/19 03:58:12;;;;;;;20.43;11.40;;;7.00;99.90;;;;;;4976711;28;20288;-69
2022/03/19 04:00:38;;;;;;;13.30;11.63;;;6.90;99.90;;;;;;4976564;28;20284;-71
2022/03/19 04:03:04;;;;;;;18.43;10.97;;;6.80;99.90;;;;;;4985845;28;20191;-68
2022/03/19 04:05:30;;;;;;;16.60;10.83;;;6.80;99.90;;;;;;4982564;28;20268;-67
2022/03/19 04:07:56;;;;;;;14.97;10.73;;;6.80;99.90;;;;;;4989605;28;20202;-73
2022/03/19 04:10:22;;;;;;;17.37;11.03;;;6.80;99.90;;;;;;4977742;28;20224;-67
2022/03/19 04:12:53;;;;;;;20.17;12.73;;;6.80;99.90;;;;;;4994525;28;20719;-68
2022/03/19 04:15:19;;;;;;;16.93;11.07;;;6.80;99.90;;;;;;4978967;28;20641;-67
2022/03/19 04:17:45;;;;;;;18.43;12.43;;;6.70;99.90;;;;;;4980406;28;20192;-67
2022/03/19 04:20:12;;;;;;;16.37;11.10;;;6.70;99.90;;;;;;4974942;28;20649;-68
2022/03/19 04:22:42;;;;;;;22.67;12.03;;;6.70;99.90;;;;;;4976603;28;20199;-67
2022/03/19 04:25:21;;;;;;;18.33;11.87;;;6.70;99.90;;;;;;4976162;28;20739;-68
2022/03/19 04:27:49;;;;;;;19.33;12.20;;;6.60;99.90;;;;;;4976485;28;20184;-68
2022/03/19 04:30:16;;;;;;;24.87;12.70;;;6.60;99.90;;;;;;4975153;28;20267;-69
2022/03/19 04:32:44;;;;;;;20.37;12.83;;;6.60;99.90;;;;;;4975909;28;20208;-70
2022/03/19 04:37:56;;;;;;;16.93;11.87;;;6.60;99.90;;;;;;4982723;28;20211;-69
2022/03/19 04:40:22;;;;;;;19.90;12.70;;;6.60;99.90;;;;;;4976098;28;20724;-69
2022/03/19 04:42:50;;;;;;;18.50;11.77;;;6.60;99.90;;;;;;4974824;28;20193;-67
2022/03/19 04:45:17;;;;;;;15.97;11.33;;;6.60;99.90;;;;;;4978405;28;20672;-67
2022/03/19 04:47:42;;;;;;;24.00;13.53;;;6.60;99.90;;;;;;4993348;28;20180;-68
2022/03/19 04:50:09;;;;;;;21.07;14.17;;;6.50;99.90;;;;;;4982333;28;20584;-68
2022/03/19 04:52:35;;;;;;;21.37;12.20;;;6.50;99.90;;;;;;4975190;28;20193;-67
2022/03/19 04:55:01;;;;;;;18.80;12.90;;;6.60;99.90;;;;;;4974833;28;20231;-67
2022/03/19 04:57:28;;;;;;;19.30;13.77;;;6.60;99.90;;;;;;4988503;28;20235;-67
2022/03/19 04:59:54;;;;;;;21.73;12.47;;;6.50;99.90;;;;;;4981916;28;20189;-67
2022/03/19 05:02:23;;;;;;;16.20;10.90;;;6.50;99.90;;;;;;4974256;28;20227;-67
2022/03/19 05:04:49;;;;;;;24.73;13.83;;;6.50;99.90;;;;;;4974405;28;20284;-67
2022/03/19 05:07:15;;;;;;;22.37;13.30;;;6.40;99.90;;;;;;4974028;28;20267;-66
2022/03/19 05:12:32;;;;;;;20.93;12.60;;;6.40;99.90;;;;;;4974205;28;20256;-67
2022/03/19 05:14:59;;;;;;;17.90;12.77;;;6.30;99.90;;;;;;4982465;28;20270;-67
2022/03/19 05:17:25;;;;;;;19.40;12.43;;;6.30;99.90;;;;;;4991955;28;20192;-73
2022/03/19 05:19:51;;;;;;;27.60;13.27;;;6.40;99.90;;;;;;4989981;28;20279;-69
2022/03/19 05:22:17;;;;;;;21.10;13.63;;;6.40;99.90;;;;;;4957953;28;20185;-67
2022/03/19 05:24:43;;;;;;;25.50;14.13;;;6.30;99.90;;;;;;4973855;28;20564;-68
2022/03/19 05:27:09;;;;;;;20.93;13.90;;;6.30;99.90;;;;;;4958135;28;20620;-67
2022/03/19 05:29:34;;;;;;;23.13;13.97;;;6.20;99.90;;;;;;4974990;28;20205;-68
2022/03/19 05:32:01;;;;;;;18.87;12.83;;;6.20;99.90;;;;;;4974802;28;20203;-66
2022/03/19 05:34:29;;;;;;;20.27;12.93;;;6.20;99.90;;;;;;4974946;28;20283;-67
2022/03/19 05:36:56;;;;;;;18.33;13.13;;;6.20;99.90;;;;;;4989055;28;20219;-67
2022/03/19 05:39:26;;;;;;;20.63;13.40;;;6.10;99.90;;;;;;4979270;28;20224;-67
2022/03/19 05:41:52;;;;;;;22.00;13.73;;;6.20;99.90;;;;;;4972682;28;20197;-70
2022/03/19 05:44:18;;;;;;;21.80;14.40;;;6.20;99.90;;;;;;4973419;28;20725;-67
2022/03/19 05:46:44;;;;;;;23.13;14.60;;;6.20;99.90;;;;;;4973360;28;20756;-67
2022/03/19 05:49:09;;;;;;;21.80;13.10;;;6.20;99.90;;;;;;4985244;28;20215;-67
2022/03/19 05:51:35;;;;;;;20.90;14.03;;;6.10;99.90;;;;;;4986822;28;20288;-68
2022/03/19 05:54:01;;;;;;;23.97;14.60;;;6.00;99.90;;;;;;4973532;28;20541;-68
2022/03/19 05:56:27;;;;;;;19.33;13.20;;;6.00;99.90;;;;;;4973125;28;20657;-69
2022/03/19 05:58:52;;;;;;;18.73;14.00;;;6.00;99.90;;;;;;4992452;28;20313;-71
2022/03/19 06:01:18;;;;;;;17.23;13.27;;;6.00;99.90;;;;;;4973560;28;20316;-68
2022/03/19 06:03:44;;;;;;;16.93;12.70;;;6.00;99.90;;;;;;4972770;28;20192;-69
2022/03/19 06:06:10;;;;;;;21.40;13.97;;;6.00;99.90;;;;;;4973472;28;20646;-68
2022/03/19 06:08:35;;;;;;;25.60;14.47;;;6.00;99.90;;;;;;4984431;28;20204;-69
2022/03/19 06:11:02;;;;;;;21.97;13.87;;;6.00;99.90;;;;;;4987745;28;20203;-70
2022/03/19 06:13:27;;;;;;;25.37;14.20;;;6.00;99.90;;;;;;4975980;28;20184;-70
2022/03/19 06:15:53;;;;;;;20.63;14.03;;;6.00;99.90;;;;;;4963260;28;20189;-68
2022/03/19 06:18:19;;;;;;;25.87;14.00;;;6.00;99.90;;;;;;4974559;28;20192;-67
2022/03/19 06:20:44;;;;;;;18.83;13.13;;;6.00;99.90;;;;;;4973083;28;20333;-70
2022/03/19 06:23:10;;;;;;;24.93;13.70;;;6.00;99.90;;;;;;4974753;28;20208;-68
2022/03/19 06:25:35;;;;;;;21.50;14.40;;;6.00;99.90;;;;;;4969365;28;20192;-68
2022/03/19 06:28:02;;;;;;;19.83;13.77;;;6.00;99.90;;;;;;4985299;28;20203;-66
2022/03/19 06:30:29;;;;;;;19.63;14.17;;;6.10;99.90;;;;;;4972882;28;20749;-68
2022/03/19 06:32:56;;;;;;;20.47;12.90;;;6.10;99.90;;;;;;4973279;28;20201;-68
2022/03/19 06:38:06;;;;;;;22.27;13.87;;;6.10;99.90;;;;;;4992241;28;20356;-69
2022/03/19 06:40:31;;;;;;;20.50;13.70;;;6.20;99.90;;;;;;4981168;28;20299;-69
2022/03/19 06:42:57;;;;;;;28.60;15.83;;;6.20;99.90;;;;;;4973222;28;20192;-69
2022/03/19 06:45:23;;;;;;;19.30;14.00;;;6.20;99.90;;;;;;4974276;28;20199;-70
2022/03/19 06:47:49;;;;;;;17.03;14.40;;;6.30;99.90;;;;;;4973173;28;20193;-69
2022/03/19 06:50:17;;;;;;;19.97;13.47;;;6.30;99.90;;;;;;4973006;28;20219;-70
2022/03/19 06:52:43;;;;;;;21.17;14.43;;;6.30;99.90;;;;;;4974288;28;20193;-69
2022/03/19 06:55:09;;;;;;;21.87;14.50;;;6.30;99.90;;;;;;4977590;28;20235;-70
2022/03/19 06:57:35;;;;;;;24.70;14.13;;;6.40;99.90;;;;;;4976835;28;20199;-70
2022/03/19 07:00:00;;;;;;;22.57;13.43;;;6.40;99.90;;;;;;4976175;28;20203;-70
2022/03/19 07:02:26;;;;;;;29.23;14.30;;;6.50;99.90;;;;;;4977784;28;20192;-69
2022/03/19 07:04:52;;;;;;;15.77;11.40;;;6.50;99.90;;;;;;4976466;28;20197;-70
2022/03/19 07:07:21;;;;;;;23.17;14.37;;;6.60;99.90;;;;;;4978506;28;20270;-70
2022/03/19 07:09:46;;;;;;;22.57;13.90;;;6.70;99.90;;;;;;4979911;28;20576;-69
2022/03/19 07:12:13;;;;;;;18.43;12.13;;;6.70;99.90;;;;;;4977787;28;20199;-69
2022/03/19 07:14:39;;;;;;;20.37;13.90;;;6.70;99.90;;;;;;4988751;28;20254;-69
2022/03/19 07:17:05;;;;;;;17.47;12.80;;;6.70;99.90;;;;;;4981678;28;20537;-69
2022/03/19 07:19:31;;;;;;;16.83;12.17;;;6.70;99.90;;;;;;4981635;28;20204;-74
2022/03/19 07:21:57;;;;;;;18.30;13.00;;;7.00;99.90;;;;;;4978275;28;20219;-69
2022/03/19 07:24:23;;;;;;;18.30;13.03;;;7.40;99.90;;;;;;4963414;28;20642;-72
2022/03/19 07:26:48;;;;;;;23.13;13.60;;;8.40;99.90;;;;;;4990835;28;20279;-69
2022/03/19 07:29:18;;;;;;;21.63;12.17;;;9.50;99.90;;;;;;4965100;28;20723;-71
2022/03/19 07:31:44;;;;;;;13.40;9.73;;;9.90;99.90;;;;;;4991745;28;20200;-71
2022/03/19 07:34:10;;;;;;;14.20;9.90;;;10.20;99.90;;;;;;4984358;28;20193;-71
2022/03/19 07:36:36;;;;;;;19.30;10.47;;;10.40;99.90;;;;;;4980156;28;20180;-72
2022/03/19 07:39:02;;;;;;;19.73;10.67;;;11.30;99.90;;;;;;4981220;28;20196;-75
2022/03/19 07:41:46;;;;;;;16.87;10.73;;;11.90;99.90;;;;;;4976903;28;20208;-77
2022/03/19 07:44:12;;;;;;;19.23;10.37;;;12.20;99.90;;;;;;4961918;28;20252;-76
2022/03/19 07:46:38;;;;;;;15.73;8.88;;;12.20;99.90;;;;;;4975755;28;20192;-74
2022/03/19 07:49:04;;;;;;;14.75;9.93;;;11.90;99.90;;;;;;4975516;28;20224;-72
2022/03/19 07:51:29;;;;;;;12.20;9.70;;;12.10;99.90;;;;;;4984546;28;20200;-71
2022/03/19 07:53:55;;;;;;;16.50;9.27;;;11.90;99.90;;;;;;4976672;28;20189;-76
2022/03/19 07:56:21;;;;;;;12.70;9.35;;;12.50;99.90;;;;;;4975748;28;20197;-69
2022/03/19 07:58:50;;;;;;;20.30;9.60;;;12.60;99.90;;;;;;4974854;28;20283;-69
2022/03/19 08:01:19;;;;;;;11.60;8.43;;;12.70;99.90;;;;;;4976312;28;20304;-69
2022/03/19 08:03:46;;;;;;;11.40;8.00;;;12.30;99.90;;;;;;4989074;28;20192;-69
2022/03/19 08:06:14;;;;;;;11.80;9.27;;;12.90;99.90;;;;;;4981064;28;20188;-70
2022/03/19 08:08:43;;;;;;;11.43;8.93;;;13.30;99.90;;;;;;4988561;28;20207;-70
2022/03/19 08:11:10;;;;;;;16.52;9.68;;;13.40;99.90;;;;;;4967757;28;20197;-71
2022/03/19 08:13:36;;;;;;;14.23;8.63;;;13.60;99.90;;;;;;4959229;28;20181;-71
2022/03/19 08:16:04;;;;;;;13.77;8.80;;;13.40;99.90;;;;;;4976262;28;20765;-70
2022/03/19 08:18:30;;;;;;;15.80;9.32;;;13.30;99.90;;;;;;4974357;28;20266;-78
2022/03/19 08:20:56;;;;;;;10.50;8.05;;;13.60;99.90;;;;;;4993294;28;20622;-69
2022/03/19 08:23:22;;;;;;;12.38;8.18;;;13.40;99.90;;;;;;4970280;28;20195;-71
2022/03/19 08:25:48;;;;;;;14.02;8.60;;;13.00;99.90;;;;;;4974840;28;20543;-69
2022/03/19 08:28:14;;;;;;;12.70;7.95;;;12.90;99.90;;;;;;4975833;28;20196;-70
2022/03/19 08:30:40;;;;;;;10.73;7.82;;;12.90;99.90;;;;;;4983859;28;20216;-71
2022/03/19 08:33:07;;;;;;;17.20;8.73;;;13.10;99.90;;;;;;4966610;28;20195;-72
2022/03/19 08:35:33;;;;;;;14.25;8.43;;;13.60;99.90;;;;;;4985395;28;20243;-70
2022/03/19 08:40:43;;;;;;;13.88;7.55;;;13.70;99.90;;;;;;4982455;28;20210;-68
2022/03/19 08:43:09;;;;;;;13.50;7.93;;;13.10;99.90;;;;;;4986742;28;20189;-69
2022/03/19 08:45:35;;;;;;;10.00;6.32;;;12.50;99.90;;;;;;4974709;28;20188;-68
2022/03/19 08:48:01;;;;;;;12.70;7.43;;;12.00;99.90;;;;;;4978808;28;20199;-67
2022/03/19 08:50:27;;;;;;;11.73;7.25;;;11.60;99.90;;;;;;4989674;28;20220;-69
2022/03/19 08:52:53;;;;;;;10.33;7.37;;;11.70;99.90;;;;;;4958200;28;20196;-67
2022/03/19 08:55:18;;;;;;;11.67;7.27;;;11.30;99.90;;;;;;4978355;28;20184;-68
2022/03/19 08:57:47;;;;;;;12.10;7.43;;;11.30;99.90;;;;;;4961181;28;20255;-68
2022/03/19 09:00:13;;;;;;;12.70;6.63;;;11.00;99.90;;;;;;4983734;28;20275;-70
2022/03/19 09:02:39;;;;;;;10.27;6.50;;;11.00;99.90;;;;;;4994954;28;20671;-67
2022/03/19 09:05:05;;;;;;;12.60;7.67;;;10.90;99.90;;;;;;4975191;28;20213;-68
2022/03/19 09:07:30;;;;;;;10.17;7.00;;;10.80;99.90;;;;;;4981451;28;20199;-67
2022/03/19 09:09:56;;;;;;;10.20;6.70;;;11.00;99.90;;;;;;4983849;28;20298;-69
2022/03/19 09:12:25;;;;;;;10.00;6.47;;;11.00;99.90;;;;;;4992485;28;20224;-66
2022/03/19 09:14:52;;;;;;;9.33;6.50;;;11.30;99.90;;;;;;4975445;28;20189;-67
2022/03/19 09:17:18;;;;;;;21.90;8.07;;;11.30;99.90;;;;;;4975126;28;20196;-66
2022/03/19 09:19:43;;;;;;;9.43;7.17;;;11.30;99.90;;;;;;4989584;28;20200;-66
2022/03/19 09:22:09;;;;;;;7.77;5.93;;;11.20;99.90;;;;;;4989311;28;20215;-67
2022/03/19 09:24:35;;;;;;;8.53;5.63;;;11.20;99.90;;;;;;4991182;28;20228;-68
2022/03/19 09:27:00;;;;;;;10.02;5.45;;;11.30;99.90;;;;;;4973869;28;20207;-68
2022/03/19 09:29:27;;;;;;;10.32;5.35;;;11.60;99.90;;;;;;4981262;28;20223;-67
2022/03/19 09:31:52;;;;;;;8.75;5.82;;;11.90;99.90;;;;;;4972112;28;20193;-67
2022/03/19 09:34:18;;;;;;;10.05;5.88;;;11.80;99.90;;;;;;4980955;28;20250;-66
2022/03/19 09:36:47;;;;;;;10.32;5.80;;;11.70;99.90;;;;;;4982342;28;20193;-69
2022/03/19 09:39:14;;;;;;;8.65;5.53;;;11.80;99.90;;;;;;4983258;28;20200;-68
2022/03/19 09:41:44;;;;;;;8.90;5.03;;;11.80;99.90;;;;;;4973371;28;20558;-68
2022/03/19 09:44:16;;;;;;;7.32;4.97;;;11.90;99.90;;;;;;4982713;28;20215;-66
2022/03/19 09:46:45;;;;;;;6.55;4.85;;;11.80;99.90;;;;;;4965319;28;20220;-66
2022/03/19 09:49:11;;;;;;;10.05;5.35;;;11.80;99.90;;;;;;4986526;28;20224;-69
2022/03/19 09:51:40;;;;;;;6.80;4.88;;;11.90;99.90;;;;;;4967686;28;20588;-67
2022/03/19 09:54:09;;;;;;;7.35;4.68;;;12.10;99.90;;;;;;4986722;28;20664;-68
2022/03/19 09:56:36;;;;;;;7.38;4.57;;;12.10;99.90;;;;;;4973625;28;20195;-68
2022/03/19 09:59:03;;;;;;;19.83;5.25;;;12.10;99.90;;;;;;4974506;28;20196;-65
2022/03/19 10:01:31;;;;;;;7.75;4.50;;;12.00;99.90;;;;;;4975356;28;20195;-67
2022/03/19 10:04:05;;;;;;;7.55;3.85;;;12.00;99.90;;;;;;4972891;28;20193;-69
2022/03/19 10:09:20;;;;;;;6.07;4.20;;;12.10;99.90;;;;;;4980747;28;20274;-67
2022/03/19 10:11:51;;;;;;;4.97;4.15;;;12.10;99.90;;;;;;4980839;28;20274;-71
2022/03/19 10:14:25;;;;;;;7.10;4.95;;;12.10;99.90;;;;;;4980779;28;20200;-72
2022/03/19 10:16:52;;;;;;;5.97;4.00;;;12.20;99.90;;;;;;4963766;28;20188;-70
2022/03/19 10:19:18;;;;;;;6.55;5.28;;;12.00;99.90;;;;;;4984628;28;20196;-67
2022/03/19 10:21:45;;;;;;;8.80;4.22;;;11.90;99.90;;;;;;4972316;28;20189;-72
2022/03/19 10:24:28;;;;;;;9.93;4.70;;;12.10;99.90;;;;;;4972250;28;20200;-69
2022/03/19 10:26:54;;;;;;;8.50;4.72;;;12.10;99.90;;;;;;4983646;28;20224;-71
2022/03/19 10:29:29;;;;;;;9.18;4.93;;;12.20;99.90;;;;;;4983485;28;20633;-70
2022/03/19 10:32:08;;;;;;;6.78;4.35;;;12.40;99.90;;;;;;4992572;28;20214;-70
2022/03/19 10:34:35;;;;;;;4.50;4.10;;;12.60;99.90;;;;;;4980049;28;20239;-68
2022/03/19 10:37:01;;;;;;;6.65;4.20;;;12.70;99.90;;;;;;4976394;28;20218;-73
2022/03/19 10:39:29;;;;;;;6.68;4.53;;;12.60;99.90;;;;;;4974427;28;20188;-71
2022/03/19 10:41:57;;;;;;;5.25;4.20;;;12.70;99.90;;;;;;4979966;28;20294;-71
2022/03/19 10:44:25;;;;;;;11.13;5.07;;;12.60;99.90;;;;;;4974425;28;20188;-69
2022/03/19 10:47:05;;;;;;;5.10;4.07;;;12.50;99.90;;;;;;4976769;28;20180;-69
2022/03/19 10:49:30;;;;;;;7.40;4.72;;;12.60;99.90;;;;;;4976407;28;20208;-71
2022/03/19 10:51:58;;;;;;;8.48;4.63;;;12.70;99.90;;;;;;4978004;28;20183;-71
2022/03/19 10:54:24;;;;;;;8.30;5.10;;;12.70;99.90;;;;;;4976291;28;20259;-68
2022/03/19 10:56:52;;;;;;;6.00;3.88;;;12.90;99.90;;;;;;4977661;28;20184;-70
2022/03/19 10:59:19;;;;;;;9.00;4.05;;;12.90;99.90;;;;;;4978879;28;20197;-71
2022/03/19 11:01:48;;;;;;;5.65;3.58;;;13.20;99.90;;;;;;4977510;28;20666;-69
2022/03/19 11:04:15;;;;;;;6.18;3.90;;;13.40;99.90;;;;;;4978028;28;20185;-70
2022/03/19 11:06:44;;;;;;;5.25;3.15;;;13.30;99.90;;;;;;4993606;28;20185;-71
2022/03/19 11:09:13;;;;;;;6.15;4.15;;;13.40;99.90;;;;;;4979341;28;20216;-70
2022/03/19 11:11:58;;;;;;;5.30;3.45;;;13.50;99.90;;;;;;4995186;28;20205;-69
2022/03/19 11:14:27;;;;;;;5.90;4.35;;;13.50;99.90;;;;;;4984006;28;20193;-69
2022/03/19 11:17:25;;;;;;;6.55;3.85;;;13.40;99.90;;;;;;4987508;28;20184;-70
2022/03/19 11:19:59;;;;;;;5.28;3.83;;;13.30;99.90;;;;;;4991480;28;20275;-70
2022/03/19 11:22:27;;;;;;;4.93;3.75;;;13.40;99.90;;;;;;4981414;28;20240;-70
2022/03/19 11:25:12;;;;;;;4.45;3.92;;;13.20;99.90;;;;;;4977006;28;20215;-69
2022/03/19 11:27:41;;;;;;;3.97;3.40;;;13.20;99.90;;;;;;4995761;28;20198;-70
2022/03/19 11:30:15;;;;;;;7.75;4.82;;;13.30;99.90;;;;;;4975638;28;20212;-71
2022/03/19 11:33:18;;;;;;;5.32;3.15;;;13.60;99.90;;;;;;4976239;28;20241;-74
2022/03/19 11:35:46;;;;;;;7.68;4.15;;;13.80;99.90;;;;;;4986549;28;20609;-72
2022/03/19 11:38:16;;;;;;;6.65;3.50;;;14.10;99.90;;;;;;4978688;28;20276;-72
2022/03/19 11:40:56;;;;;;;4.20;3.47;;;14.10;99.90;;;;;;4977456;28;20271;-74
2022/03/19 11:43:24;;;;;;;4.88;4.05;;;14.00;99.90;;;;;;4987286;28;20577;-69
2022/03/19 11:45:58;;;;;;;3.45;3.15;;;14.00;99.90;;;;;;4988773;28;20192;-70
2022/03/19 11:48:35;;;;;;;3.85;3.50;;;14.10;99.90;;;;;;4976824;28;20543;-71
2022/03/19 11:51:22;;;;;;;11.95;4.75;;;13.90;99.90;;;;;;4976576;28;20196;-70
2022/03/19 11:53:58;;;;;;;5.18;4.07;;;13.70;99.90;;;;;;4985478;28;20179;-71
2022/03/19 11:56:48;;;;;;;5.93;3.38;;;13.70;99.90;;;;;;4976554;28;20669;-71
2022/03/19 11:59:16;;;;;;;6.70;3.92;;;13.90;99.90;;;;;;4976980;28;20196;-70
2022/03/19 12:02:00;;;;;;;4.22;3.75;;;13.80;99.90;;;;;;4976836;28;20193;-72
2022/03/19 12:04:47;;;;;;;8.07;3.88;;;14.00;99.90;;;;;;4976306;28;20271;-70
2022/03/19 12:07:32;;;;;;;9.43;3.95;;;13.90;99.90;;;;;;4976691;28;20180;-70
2022/03/19 12:09:59;;;;;;;6.32;4.28;;;14.00;99.90;;;;;;4975935;28;20646;-71
2022/03/19 12:12:26;;;;;;;6.70;4.32;;;13.90;99.90;;;;;;4976438;28;20189;-70
2022/03/19 12:14:52;;;;;;;4.80;4.35;;;13.80;99.90;;;;;;4975017;28;20188;-69
2022/03/19 12:17:24;;;;;;;8.93;4.32;;;13.80;99.90;;;;;;4975094;28;20185;-72
2022/03/19 12:20:00;;;;;;;5.25;4.28;;;13.80;99.90;;;;;;4976065;28;20279;-69
2022/03/19 12:22:44;;;;;;;10.77;4.45;;;13.90;99.90;;;;;;4975924;28;20238;-69
2022/03/19 12:25:20;;;;;;;6.07;4.80;;;14.00;99.90;;;;;;4976092;28;20188;-68
2022/03/19 12:27:51;;;;;;;7.53;4.57;;;13.90;99.90;;;;;;4976302;28;20184;-68
2022/03/19 12:30:18;;;;;;;10.23;5.53;;;13.70;99.90;;;;;;4942903;28;20827;-68
2022/03/19 12:32:54;;;;;;;7.22;4.38;;;13.60;99.90;;;;;;4974804;28;20220;-69
2022/03/19 12:35:37;;;;;;;7.85;4.28;;;13.50;99.90;;;;;;4976573;28;20645;-69
2022/03/19 12:38:03;;;;;;;8.73;4.05;;;13.70;99.90;;;;;;4993946;28;20199;-68
2022/03/19 12:41:23;;;;;;;6.93;5.00;;;14.00;99.90;;;;;;4968641;28;20192;-68
2022/03/19 12:43:15;;;;;;;8.30;5.75;;;14.00;99.90;;;;;;4974609;28;20291;-69
2022/03/19 12:45:46;;;;;;;9.45;5.65;;;14.00;99.90;;;;;;4975614;28;20228;-75
2022/03/19 12:48:21;;;;;;;8.43;5.47;;;14.00;99.90;;;;;;4994927;28;20196;-68
2022/03/19 12:50:51;;;;;;;7.53;5.15;;;13.90;99.90;;;;;;4978812;28;20227;-70
2022/03/19 12:53:35;;;;;;;6.30;5.03;;;14.00;99.90;;;;;;4982691;28;20533;-77
2022/03/19 12:56:15;;;;;;;7.03;5.47;;;14.10;99.90;;;;;;4975778;28;20267;-69
2022/03/19 12:58:46;;;;;;;6.10;4.95;;;14.10;99.90;;;;;;4974568;28;20224;-69
2022/03/19 13:01:16;;;;;;;6.07;4.90;;;14.30;99.90;;;;;;4975285;28;20185;-68
2022/03/19 13:03:42;;;;;;;7.43;5.70;;;14.30;99.90;;;;;;4987750;28;20187;-69
2022/03/19 13:06:08;;;;;;;6.32;5.43;;;14.30;99.90;;;;;;4979983;28;20211;-69
2022/03/19 13:08:48;;;;;;;8.20;5.20;;;14.20;99.90;;;;;;4975256;28;20209;-68